Estación de Maule

Ultimos registro cada 15 minutos 62
Estación Fecha / Hora Temperatura Humedad Lluvia Velocidad Dirección Radiación Presion
62 Maule 07-05-2026 15:45 14,2 61 0 2,2 185 128 1026,5
61 Maule 07-05-2026 15:30 14,5 60 0 1,8 180 179 1026,5
60 Maule 07-05-2026 15:15 14,7 60 0 1,3 180 230 1026,8
59 Maule 07-05-2026 15:00 14,7 59 0 0,9 218 248 1026,9
58 Maule 07-05-2026 14:45 14,8 61 0 1,3 195 223 1027,1
57 Maule 07-05-2026 14:30 14,9 63 0 3,6 190 346 1026,4
56 Maule 07-05-2026 14:15 14,9 59 0 0,9 204 390 1026,8
55 Maule 07-05-2026 14:00 15 60 0 1,3 176 431 1026,9
54 Maule 07-05-2026 13:45 14,6 62 0 0 223 587 1026,8
53 Maule 07-05-2026 13:30 14,4 65 0 2,7 195 577 1027
52 Maule 07-05-2026 13:15 14,1 65 0 3,6 195 582 1027,5
51 Maule 07-05-2026 13:00 13,9 66 0 0,9 199 587 1027,3
50 Maule 07-05-2026 12:45 13,7 67 0 3,1 134 589 1027,4
49 Maule 07-05-2026 12:30 13,5 69 0 2,2 166 592 1027,7
48 Maule 07-05-2026 12:15 13,2 68 0 0,4 158 582 1027,8
47 Maule 07-05-2026 12:00 12,9 67 0 2,2 148 580 1027,7
46 Maule 07-05-2026 11:45 12,7 69 0 1,8 145 566 1027,7
45 Maule 07-05-2026 11:30 12,4 69 0 3,6 195 552 1028,1
44 Maule 07-05-2026 11:15 12,1 72 0 1,8 195 531 1028,1
43 Maule 07-05-2026 11:00 11,6 76 0 0,4 169 506 1028,4
42 Maule 07-05-2026 10:30 10,8 79 0 1,8 185 464 1028,4
41 Maule 07-05-2026 10:15 10,3 81 0 0,4 174 434 1028,6
40 Maule 07-05-2026 10:00 9,8 83 0 1,3 190 399 1028,4
39 Maule 07-05-2026 09:45 8,6 87 0 0 149 318 1028,4
38 Maule 07-05-2026 09:30 8,6 87 0 0 149 318 1028,4
37 Maule 07-05-2026 09:15 8,3 90 0 0 172 274 1028,4
36 Maule 07-05-2026 09:00 7,7 92 0 0 223 232 1028,2
35 Maule 07-05-2026 08:45 6,3 97 0 0 275 146 1028
34 Maule 07-05-2026 08:30 6,3 97 0 0 275 146 1028
33 Maule 07-05-2026 08:15 4,7 96 0 0 275 100 1027,5
32 Maule 07-05-2026 08:00 3,8 96 0 0 275 23 1027,7
31 Maule 07-05-2026 07:45 3,4 94 0 0 275 7 1027,1
30 Maule 07-05-2026 07:30 3,7 94 0 0 275 0 1027,2
29 Maule 07-05-2026 07:00 4,1 95 0 0 275 0 1027,1
28 Maule 07-05-2026 06:45 4,9 94 0 0 275 0 1026,5
27 Maule 07-05-2026 06:30 4,9 94 0 0 275 0 1026,5
26 Maule 07-05-2026 06:15 4,8 96 0 0,4 275 0 1026,5
25 Maule 07-05-2026 06:00 4,2 94 0 0 274 0 1026,1
24 Maule 07-05-2026 05:45 5,1 93 0 0 274 0 1025,9
23 Maule 07-05-2026 05:30 5,1 93 0 0 274 0 1025,9
22 Maule 07-05-2026 05:15 5,7 94 0 0 274 0 1025,9
21 Maule 07-05-2026 05:00 5,8 93 0 0 274 0 1025,7
20 Maule 07-05-2026 04:45 5,9 92 0 0 274 0 1025,4
19 Maule 07-05-2026 04:30 5,9 92 0 0 274 0 1025,4
18 Maule 07-05-2026 04:15 6,3 92 0 0 274 0 1025,3
17 Maule 07-05-2026 04:00 6,8 92 0 0 274 0 1025,1
16 Maule 07-05-2026 03:45 6,8 93 0 0 274 0 1024,9
15 Maule 07-05-2026 03:30 6,8 93 0 0 274 0 1024,9
14 Maule 07-05-2026 03:15 6,8 93 0 0 274 0 1024,9
13 Maule 07-05-2026 03:00 7 93 0 0 274 0 1025
12 Maule 07-05-2026 02:45 7,2 92 0 0 274 0 1024,9
11 Maule 07-05-2026 02:30 7,2 92 0 0 274 0 1024,9
10 Maule 07-05-2026 02:15 7,2 92 0 0 274 0 1025,1
9 Maule 07-05-2026 02:00 7,4 91 0 0 274 0 1025,1
8 Maule 07-05-2026 01:45 8,4 90 0 0 274 0 1024,1
7 Maule 07-05-2026 01:30 8,4 90 0 0 274 0 1024,1
6 Maule 07-05-2026 01:15 8,7 90 0 0 274 0 1024,1
5 Maule 07-05-2026 01:00 8,8 91 0 0 274 0 1024,2
4 Maule 07-05-2026 00:45 9,1 89 0 0 274 0 1024,1
3 Maule 07-05-2026 00:30 9,1 89 0 0 274 0 1024,1
2 Maule 07-05-2026 00:15 9,3 89 0 0 274 0 1024
1 Maule 07-05-2026 00:00 9,1 90 0 0 274 0 1023,8